AirNav  
 
 1577 users online  

WY05 Skyview Airpark
Cheyenne, Wyoming, USA

GOING TO CHEYENNE?


FAA INFORMATION EFFECTIVE 12 OCTOBER 2017

Location

FAA Identifier: WY05
Lat/Long: 41-13-01.9290N / 104-35-01.8670W
41-13.032150N / 104-35.031117W
41.2172025 / -104.5838519
(estimated)
Elevation: 5838 ft. / 1779 m (estimated)
Variation: 11E (1985)
From city: 15 miles E of CHEYENNE, WY
Time zone: UTC -6 (UTC -7 during Standard Time)
Zip code: 82009

Airport Operations

Airport use: Private use. Permission required prior to landing
Activation date: 10/1973
Control tower: no
ARTCC: DENVER CENTER
FSS: CASPER FLIGHT SERVICE STATION
Attendance: UNATNDD
Wind indicator: lighted
Segmented circle: yes

Airport Communications

WX ASOS at CYS (11 nm W): PHONE 307-632-7680

Nearby radio navigation aids

VOR radial/distance  VOR name  Freq  Var
CYSr074/8.5CHEYENNE VORTAC113.1013E

Airport Services

Airframe service: NONE
Powerplant service: NONE

Runway Information

Runway 8/26

Dimensions: 3900 x 70 ft. / 1189 x 21 m
Surface: gravel/dirt
ROUGH, LOW MAINTENANCE, ANIMALS, PEOPLE AND VEHICLES ON RUNWAY, STRONG CROSS WINDS, TOPOGRAPHIC TURBULANCE, BUILDINGS CLOSE TO RUNWAY EDGES, STREET TO NORTH MAY BE CONFUSED FOR RUNWAY.
RUNWAY 8  RUNWAY 26
Traffic pattern: leftleft
Displaced threshold: no300 ft.
RWY 26 DSPLD THLD MARKED WITH WHITE FLAGS.
Obstructions: 50 ft. pline, marked, 1300 ft. from runway40 ft. pline, 2600 ft. from runway

Airport Ownership and Management from official FAA records

Ownership: Privately-owned
Owner: SAPA, INC.
3672 AVIATOR COURT
CHEYENNE, WY 82009
Phone 307-630-2959
Manager: FRANK GERSTENKORN
3672 AVIATOR COURT
CHEYENNE, WY 82009
Phone 307-630-2959

Airport Operational Statistics

Aircraft based on the field: 11
Single engine airplanes: 11
    

Instrument Procedures

There are no published instrument procedures at WY05.

Some nearby airports with instrument procedures:

KCYS - Cheyenne Regional Airport/Jerry Olson Field (11 nm W)
KIBM - Kimball Municipal Airport/Robert E Arraj Field (41 nm E)
KGXY - Greeley-Weld County Airport (47 nm S)
KLAR - Laramie Regional Airport (50 nm W)
KFNL - Fort Collins-Loveland Municipal Airport (50 nm SW)
 
Loc | Ops | Rwys | IFR | FBO | Links
Com | Nav | Svcs | Stats | Notes


 
Area around WY05 (Skyview Airpark)
 
Road maps at: MapQuest Bing Google
 
Aerial photo
WARNING: Photo may not be current or correct
Aerial photo of WY05 (Skyview Airpark)
Photo by Dan Glandt
Photo taken 26-Apr-2015
looking west.

Do you have a better or more recent aerial photo of Skyview Airpark that you would like to share? If so, please send us your photo.

 
Sectional chart

 
Airport distance calculator
Flying to Skyview Airpark? Find the distance to fly.

From to WY05

Sunrise and sunset
Times for 20-Oct-2017
 Local
(UTC-6)
 Zulu
(UTC)
Morning civil twilight06:4912:49
Sunrise07:1713:17
Sunset18:1000:10
Evening civil twilight18:3800:38

Current date and time
Zulu (UTC)  20-Oct-2017 15:36:03
Local (UTC-6)  20-Oct-2017 09:36:03
 
METAR
KCYS 
11nm W 
201453Z 25004KT 10SM CLR 14/01 A2978 RMK AO2 SLP029 T01390011 56005
KFEW 
14nm W 
201458Z AUTO 26007KT 10SM CLR 15/01 A2979 RMK AO2 SLP043 T01450013 57006 $
K82V 
21nm E 
201515Z AUTO 00000KT 10SM CLR 10/01 A2975 RMK AO2
TAF
KCYS 
11nm W 
201129Z 2012/2112 27010KT P6SM SCT150 FM201700 24015G25KT P6SM SCT250 FM210000 28012KT P6SM SCT100 FM210400 31028G38KT P6SM BKN100
NOTAMs
Click for the latest NOTAMs
NOTAMs are issued by the DoD/FAA and will open in a separate window not controlled by AirNav.

 

 
 

Would you like to see your business listed on this page?

 If your business provides an interesting product or service to pilots, flight crews, aircraft, or users of the Skyview Airpark, you should consider listing it here.  To start the listing process, click on the button below
 
Add a business
 

Other Pages about Skyview Airpark

Update a link
 
Copyright © AirNav, LLC. All rights reserved. Privacy Policy  Contact